Time;durP1;ratioP1;P1;durP2;ratioP2;P2;SDS_P1;SDS_P2;PMS_P1;PMS_P2;Temp;Humidity;BMP_temperature;BMP_pressure;BME280_temperature;BME280_humidity;BME280_pressure;Samples;Min_cycle;Max_cycle;Signal;HPM_P1;HPM_P2
2022/10/28 03:57:00;;;;;;;8.40;3.42;;;14.20;99.90;;;;;;5592850;23;20084;-83
2022/10/28 03:59:26;;;;;;;13.40;5.15;;;14.20;99.90;;;;;;4902896;29;20064;-84
2022/10/28 04:01:53;;;;;;;12.63;5.13;;;14.20;99.90;;;;;;4900842;29;20071;-84
2022/10/28 04:04:20;;;;;;;14.20;2.97;;;14.20;99.90;;;;;;4900427;29;20442;-83
2022/10/28 04:06:46;;;;;;;8.00;2.10;;;14.20;99.90;;;;;;4901143;29;20056;-84
2022/10/28 04:09:13;;;;;;;8.45;2.65;;;14.20;99.90;;;;;;4900872;29;20049;-84
2022/10/28 04:11:40;;;;;;;11.57;2.95;;;14.30;99.90;;;;;;4905448;29;20051;-84
2022/10/28 04:14:06;;;;;;;10.48;3.00;;;14.20;99.90;;;;;;4901189;29;20139;-85
2022/10/28 04:16:33;;;;;;;12.07;9.30;;;14.20;99.90;;;;;;4899610;29;20056;-85
2022/10/28 04:19:00;;;;;;;9.75;5.07;;;14.30;99.90;;;;;;4900032;29;20057;-84
2022/10/28 04:21:27;;;;;;;10.70;3.42;;;14.30;99.90;;;;;;4891813;29;20060;-85
2022/10/28 04:23:54;;;;;;;7.18;2.88;;;14.30;99.90;;;;;;4914843;29;20060;-84
2022/10/28 04:26:20;;;;;;;5.80;2.75;;;14.30;99.90;;;;;;4898358;29;20210;-85
2022/10/28 04:28:47;;;;;;;10.10;3.20;;;14.20;99.90;;;;;;4895237;29;20056;-85
2022/10/28 04:31:14;;;;;;;10.07;3.60;;;14.20;99.90;;;;;;4894439;29;20516;-85
2022/10/28 04:33:41;;;;;;;10.98;4.00;;;14.30;99.90;;;;;;4898984;29;20057;-84
2022/10/28 04:36:13;;;;;;;7.75;3.65;;;14.20;99.90;;;;;;4900720;29;20134;-84
2022/10/28 04:38:42;;;;;;;11.18;4.53;;;14.30;99.90;;;;;;4894414;29;20056;-87
2022/10/28 04:41:15;;;;;;;13.38;3.67;;;14.30;99.90;;;;;;4893077;29;20047;-86
2022/10/28 04:43:47;;;;;;;12.00;4.72;;;14.30;99.90;;;;;;4896692;29;20049;-85
2022/10/28 04:46:22;;;;;;;11.38;3.58;;;14.40;99.90;;;;;;4906678;29;20055;-84
2022/10/28 04:48:57;;;;;;;8.20;3.50;;;14.30;99.90;;;;;;4888106;29;20136;-85
2022/10/28 04:51:27;;;;;;;11.27;3.60;;;14.30;99.90;;;;;;4896092;29;20112;-86
2022/10/28 04:54:23;;;;;;;9.57;3.45;;;14.40;99.90;;;;;;4893566;29;20061;-86
2022/10/28 04:56:53;;;;;;;9.15;3.58;;;14.40;99.90;;;;;;4905535;29;20067;-86
2022/10/28 04:59:22;;;;;;;11.75;4.10;;;14.40;99.90;;;;;;4899609;29;20494;-86
2022/10/28 05:01:51;;;;;;;13.70;3.85;;;14.40;99.90;;;;;;4909977;29;20063;-85
2022/10/28 05:04:18;;;;;;;9.98;3.65;;;14.40;99.90;;;;;;4900400;29;20083;-85
2022/10/28 05:06:45;;;;;;;8.68;3.60;;;14.40;99.90;;;;;;4900306;29;20066;-84
2022/10/28 05:09:12;;;;;;;8.18;3.50;;;14.40;99.90;;;;;;4895493;29;20510;-85
2022/10/28 05:11:39;;;;;;;10.85;4.47;;;14.40;99.90;;;;;;4902132;29;20451;-85
2022/10/28 05:14:06;;;;;;;16.55;5.65;;;14.40;99.90;;;;;;4910146;29;20056;-85
2022/10/28 05:16:33;;;;;;;12.07;4.55;;;14.40;99.90;;;;;;4898773;29;20426;-84
2022/10/28 05:19:00;;;;;;;13.38;4.80;;;14.40;99.90;;;;;;4901531;29;20252;-88
2022/10/28 05:21:27;;;;;;;8.35;3.83;;;14.40;99.90;;;;;;4899899;29;20052;-84
2022/10/28 05:23:54;;;;;;;12.85;4.43;;;14.40;99.90;;;;;;4905682;29;20053;-85
2022/10/28 05:26:20;;;;;;;16.20;5.97;;;14.40;99.90;;;;;;4904293;29;20074;-86
2022/10/28 05:28:50;;;;;;;14.00;5.00;;;14.40;99.90;;;;;;4892664;29;20051;-86
2022/10/28 05:31:17;;;;;;;11.30;4.45;;;14.40;99.90;;;;;;4911841;29;20480;-85
2022/10/28 05:33:44;;;;;;;13.77;4.55;;;14.40;99.90;;;;;;4901108;29;20052;-84
2022/10/28 05:36:10;;;;;;;11.13;4.95;;;14.50;99.90;;;;;;4903315;29;20060;-87
2022/10/28 05:38:38;;;;;;;10.15;4.65;;;14.40;99.90;;;;;;4898152;29;20519;-85
2022/10/28 05:41:05;;;;;;;12.30;4.07;;;14.40;99.90;;;;;;4900001;29;20394;-84
2022/10/28 05:43:32;;;;;;;9.18;4.70;;;14.40;99.90;;;;;;4911747;29;20048;-85
2022/10/28 05:45:58;;;;;;;6.88;3.72;;;14.30;99.90;;;;;;4906637;29;20055;-85
2022/10/28 05:48:25;;;;;;;9.60;4.20;;;14.40;99.90;;;;;;4913300;29;20057;-85
2022/10/28 05:50:52;;;;;;;12.70;5.10;;;14.50;99.90;;;;;;4900767;29;20147;-85
2022/10/28 05:53:18;;;;;;;9.63;4.20;;;14.40;99.90;;;;;;4898653;29;20549;-85
2022/10/28 05:55:45;;;;;;;13.60;4.18;;;14.50;99.90;;;;;;4903961;29;20053;-87
2022/10/28 05:58:13;;;;;;;11.63;4.63;;;14.50;99.90;;;;;;4914749;29;20084;-89
2022/10/28 06:00:40;;;;;;;7.88;3.90;;;14.50;99.90;;;;;;4923177;29;20136;-87
2022/10/28 06:03:10;;;;;;;11.75;4.28;;;14.50;99.90;;;;;;4917230;29;20055;-85
2022/10/28 06:05:44;;;;;;;13.93;4.40;;;14.50;99.90;;;;;;4900508;29;20067;-85
2022/10/28 06:08:12;;;;;;;10.90;4.03;;;14.50;99.90;;;;;;4893721;29;20060;-85
2022/10/28 06:10:40;;;;;;;12.95;3.75;;;14.60;99.90;;;;;;4904671;29;20049;-86
2022/10/28 06:13:07;;;;;;;10.20;4.00;;;14.50;99.90;;;;;;4903359;29;20056;-85
2022/10/28 06:15:34;;;;;;;14.85;4.20;;;14.50;99.90;;;;;;4900856;29;20497;-85
2022/10/28 06:18:01;;;;;;;9.73;3.97;;;14.60;99.90;;;;;;4896931;29;20045;-85
2022/10/28 06:20:28;;;;;;;8.95;4.05;;;14.50;99.90;;;;;;4898622;29;20139;-86
2022/10/28 06:22:56;;;;;;;6.32;3.42;;;14.50;99.90;;;;;;4902390;29;20128;-85
2022/10/28 06:25:24;;;;;;;15.10;4.50;;;14.50;99.90;;;;;;4898768;29;20149;-86
2022/10/28 06:27:56;;;;;;;11.50;4.10;;;14.50;99.90;;;;;;4897577;29;20056;-85
2022/10/28 06:30:25;;;;;;;13.15;4.88;;;14.50;99.90;;;;;;4897523;29;20113;-85
2022/10/28 06:32:55;;;;;;;10.43;4.15;;;14.60;99.90;;;;;;4902498;29;20053;-86
2022/10/28 06:35:25;;;;;;;14.93;4.72;;;14.60;99.90;;;;;;4911705;29;20053;-85
2022/10/28 06:37:56;;;;;;;10.77;4.15;;;14.70;99.90;;;;;;4898073;29;20068;-85
2022/10/28 06:40:26;;;;;;;9.88;4.22;;;14.60;99.90;;;;;;4893549;29;20048;-85
2022/10/28 06:43:00;;;;;;;;;;;14.60;99.90;;;;;;4909695;29;20060;-86
2022/10/28 06:45:28;;;;;;;11.93;4.40;;;14.60;99.90;;;;;;4903102;29;19930;-85
2022/10/28 06:48:00;;;;;;;11.35;3.95;;;14.70;99.90;;;;;;4908256;29;20072;-85
2022/10/28 06:50:28;;;;;;;11.93;3.60;;;14.70;99.90;;;;;;4898466;29;20059;-85
2022/10/28 06:52:59;;;;;;;11.15;5.00;;;14.70;99.90;;;;;;4900107;29;20109;-86
2022/10/28 06:55:26;;;;;;;;;;;14.80;99.90;;;;;;4898746;29;20048;-86
2022/10/28 06:57:57;;;;;;;14.35;4.63;;;14.80;99.90;;;;;;4903891;29;19974;-85
2022/10/28 07:00:25;;;;;;;14.25;4.95;;;14.80;99.90;;;;;;4902789;29;20049;-85
2022/10/28 07:02:53;;;;;;;13.55;3.70;;;14.80;99.90;;;;;;4914222;29;20052;-85
2022/10/28 07:05:22;;;;;;;10.70;4.00;;;14.90;99.90;;;;;;4913986;29;20107;-86
2022/10/28 07:07:49;;;;;;;10.20;4.22;;;14.90;99.90;;;;;;4900359;29;20067;-84
2022/10/28 07:10:16;;;;;;;10.75;4.93;;;15.00;99.90;;;;;;4900375;29;20063;-85
2022/10/28 07:12:43;;;;;;;7.75;4.22;;;15.00;99.90;;;;;;4899889;29;20489;-85
2022/10/28 07:15:12;;;;;;;10.38;4.57;;;15.00;99.90;;;;;;4898042;29;20065;-86
2022/10/28 07:17:39;;;;;;;7.18;3.60;;;15.00;99.90;;;;;;4916243;29;20074;-84
2022/10/28 07:20:15;;;;;;;9.40;4.40;;;15.10;99.90;;;;;;4896806;29;20562;-84
2022/10/28 07:22:42;;;;;;;14.95;4.53;;;15.10;99.90;;;;;;4890641;29;20045;-84
2022/10/28 07:25:09;;;;;;;13.07;4.82;;;15.20;99.90;;;;;;4912033;29;20144;-87
2022/10/28 07:27:35;;;;;;;12.95;4.32;;;15.20;99.90;;;;;;4898555;29;20151;-85
2022/10/28 07:30:02;;;;;;;12.35;5.35;;;15.10;99.90;;;;;;4898612;29;20048;-85
2022/10/28 07:32:32;;;;;;;17.35;6.18;;;15.20;99.90;;;;;;4905058;29;20464;-84
2022/10/28 07:34:59;;;;;;;9.25;4.45;;;15.20;99.90;;;;;;4901398;29;20483;-85
2022/10/28 07:37:28;;;;;;;10.77;4.60;;;15.20;99.90;;;;;;4910335;29;20049;-87
2022/10/28 07:39:55;;;;;;;16.45;5.05;;;15.30;99.90;;;;;;4902989;29;20048;-85
2022/10/28 07:42:22;;;;;;;10.45;4.28;;;15.30;99.90;;;;;;4907188;29;20052;-86
2022/10/28 07:44:51;;;;;;;10.33;5.00;;;15.30;99.90;;;;;;4914858;29;20060;-84
2022/10/28 07:47:20;;;;;;;9.82;4.53;;;15.30;99.90;;;;;;4912934;29;20367;-87
2022/10/28 07:49:47;;;;;;;10.82;4.05;;;15.40;99.90;;;;;;4902356;29;20056;-85
2022/10/28 07:52:14;;;;;;;14.98;4.90;;;15.50;99.90;;;;;;4898457;29;20053;-87
2022/10/28 07:54:41;;;;;;;14.05;4.53;;;15.60;99.90;;;;;;4906834;29;20059;-86
2022/10/28 07:57:11;;;;;;;12.05;3.92;;;15.60;99.90;;;;;;4910462;29;20049;-86
2022/10/28 07:59:37;;;;;;;11.18;4.95;;;15.50;99.90;;;;;;4905703;29;20051;-86
2022/10/28 08:02:06;;;;;;;8.63;5.47;;;15.70;99.90;;;;;;4908276;29;20060;-84
2022/10/28 08:04:35;;;;;;;9.48;5.20;;;15.80;99.90;;;;;;4903270;29;20074;-85
2022/10/28 08:07:04;;;;;;;14.55;7.40;;;15.80;99.90;;;;;;4904973;29;20044;-85
2022/10/28 08:09:31;;;;;;;12.35;7.03;;;15.90;99.90;;;;;;4917434;29;20569;-88
2022/10/28 08:11:59;;;;;;;8.85;6.63;;;15.90;99.90;;;;;;4912183;29;20092;-86
2022/10/28 08:14:25;;;;;;;13.38;5.97;;;15.90;99.90;;;;;;4912216;29;20052;-87
2022/10/28 08:16:54;;;;;;;13.73;5.57;;;16.00;99.90;;;;;;4910451;29;20048;-89
2022/10/28 08:19:21;;;;;;;9.07;4.55;;;16.00;99.90;;;;;;4919087;29;20072;-90
2022/10/28 08:21:51;;;;;;;10.32;4.93;;;16.10;99.90;;;;;;4918399;29;20049;-87
2022/10/28 08:24:21;;;;;;;9.95;5.03;;;16.20;99.90;;;;;;4923837;29;20040;-89
2022/10/28 08:26:48;;;;;;;14.50;6.28;;;16.10;99.90;;;;;;4916134;29;20033;-86
2022/10/28 08:29:15;;;;;;;11.07;4.90;;;16.20;99.90;;;;;;4923376;29;20077;-82
2022/10/28 08:31:42;;;;;;;10.43;4.50;;;16.20;99.90;;;;;;4926520;29;20502;-84
2022/10/28 08:34:09;;;;;;;13.40;4.45;;;16.30;99.90;;;;;;4906496;29;20057;-84
2022/10/28 08:36:36;;;;;;;11.57;4.57;;;16.40;99.90;;;;;;4913324;29;20048;-84
2022/10/28 08:39:03;;;;;;;12.10;4.60;;;16.40;99.90;;;;;;4898481;29;20446;-84
2022/10/28 08:42:06;;;;;;;8.43;3.80;;;16.50;99.90;;;;;;4915128;29;20112;-84
2022/10/28 08:44:51;;;;;;;13.32;4.95;;;16.60;99.90;;;;;;4917231;29;20594;-85
2022/10/28 08:47:40;;;;;;;15.70;4.47;;;16.70;99.90;;;;;;4909930;29;20474;-85
2022/10/28 08:50:14;;;;;;;17.75;4.22;;;16.70;99.90;;;;;;4894915;29;20065;-86
2022/10/28 08:52:54;;;;;;;15.25;4.45;;;16.80;99.90;;;;;;4917280;29;20686;-84
2022/10/28 08:55:33;;;;;;;11.13;3.15;;;16.90;99.90;;;;;;4896803;29;20135;-85
2022/10/28 08:58:21;;;;;;;13.77;3.15;;;17.10;99.90;;;;;;4910378;29;20201;-84
2022/10/28 09:00:58;;;;;;;10.07;3.05;;;17.30;99.90;;;;;;4901359;29;20053;-85
2022/10/28 09:03:47;;;;;;;6.70;2.97;;;17.50;99.90;;;;;;4905731;29;20060;-83
2022/10/28 09:06:14;;;;;;;12.38;2.58;;;17.80;99.90;;;;;;4901425;29;20399;-85
2022/10/28 09:08:46;;;;;;;12.32;3.65;;;18.00;99.90;;;;;;4902465;29;20056;-84
2022/10/28 09:11:35;;;;;;;10.75;2.50;;;18.10;99.90;;;;;;4905353;29;20090;-84
2022/10/28 09:14:07;;;;;;;10.45;2.65;;;18.40;99.90;;;;;;4912195;29;20085;-84
2022/10/28 09:16:46;;;;;;;10.73;2.70;;;18.70;99.90;;;;;;4901987;29;20052;-85
2022/10/28 09:19:32;;;;;;;11.18;2.58;;;18.80;99.90;;;;;;4905318;29;20056;-85
2022/10/28 09:22:08;;;;;;;14.57;2.85;;;19.10;99.90;;;;;;4901546;29;20049;-86
2022/10/28 09:24:47;;;;;;;8.60;2.55;;;19.20;99.90;;;;;;4902913;29;20068;-86
2022/10/28 09:27:48;;;;;;;11.88;2.40;;;19.10;99.90;;;;;;4900751;29;20151;-84
2022/10/28 09:30:54;;;;;;;6.50;2.47;;;19.20;99.90;;;;;;4872440;29;20105;-87
2022/10/28 09:33:36;;;;;;;11.05;2.08;;;19.20;99.90;;;;;;4906082;29;20066;-84
2022/10/28 09:36:08;;;;;;;16.65;2.75;;;19.30;99.90;;;;;;4916766;29;20053;-84
2022/10/28 09:38:39;;;;;;;5.68;1.75;;;19.40;99.90;;;;;;4907169;29;20053;-84
2022/10/28 09:41:27;;;;;;;7.13;2.50;;;19.40;99.90;;;;;;4894133;29;20053;-86
2022/10/28 09:44:04;;;;;;;9.27;2.17;;;19.50;99.90;;;;;;4894843;29;20395;-87
2022/10/28 09:46:32;;;;;;;10.75;2.30;;;19.40;99.90;;;;;;4899717;29;20407;-85
2022/10/28 09:49:10;;;;;;;11.95;2.58;;;19.50;99.90;;;;;;4899650;29;20085;-85
2022/10/28 09:51:37;;;;;;;15.25;2.72;;;19.50;99.90;;;;;;4901400;29;20049;-85
2022/10/28 09:54:04;;;;;;;9.60;2.58;;;19.60;99.90;;;;;;4910847;29;20089;-84
2022/10/28 09:56:31;;;;;;;11.73;2.38;;;19.60;99.90;;;;;;4902089;29;20124;-85
2022/10/28 09:59:01;;;;;;;12.27;2.10;;;19.60;99.90;;;;;;4902792;29;20135;-85
2022/10/28 10:01:40;;;;;;;8.52;2.20;;;19.80;99.90;;;;;;4904827;29;20049;-84
2022/10/28 10:04:22;;;;;;;18.95;2.58;;;19.90;99.90;;;;;;4910498;29;20073;-86
2022/10/28 10:07:04;;;;;;;9.27;2.33;;;20.10;99.90;;;;;;4895129;29;20064;-85
2022/10/28 10:09:33;;;;;;;9.25;2.30;;;20.20;99.90;;;;;;4900612;29;20176;-86
2022/10/28 10:12:09;;;;;;;10.82;2.38;;;20.30;99.90;;;;;;4904122;29;20092;-85
2022/10/28 10:14:42;;;;;;;10.90;1.70;;;20.50;99.90;;;;;;4900490;29;20076;-85
2022/10/28 10:17:23;;;;;;;12.30;1.95;;;20.60;99.90;;;;;;4890465;29;20589;-85
2022/10/28 10:20:09;;;;;;;17.58;2.10;;;20.70;99.90;;;;;;4902391;29;20057;-86
2022/10/28 10:22:38;;;;;;;10.80;2.15;;;20.70;99.90;;;;;;4902126;29;20133;-85
2022/10/28 10:25:19;;;;;;;16.65;2.58;;;20.80;99.90;;;;;;4904232;29;20081;-85
2022/10/28 10:27:50;;;;;;;14.40;3.28;;;20.80;99.90;;;;;;4898999;29;20420;-85
2022/10/28 10:30:25;;;;;;;13.02;2.42;;;20.90;99.90;;;;;;4903336;29;20048;-85
2022/10/28 10:32:52;;;;;;;14.65;3.00;;;21.00;99.90;;;;;;4894492;29;20143;-85
2022/10/28 10:35:24;;;;;;;8.93;2.17;;;21.10;99.90;;;;;;4911092;29;20088;-86
2022/10/28 10:37:52;;;;;;;11.55;2.60;;;21.00;99.90;;;;;;4912984;29;20069;-85
2022/10/28 10:40:33;;;;;;;12.48;2.50;;;21.20;99.90;;;;;;4896001;29;20116;-85
2022/10/28 10:43:31;;;;;;;22.50;3.20;;;21.20;99.90;;;;;;4890724;29;20076;-84
2022/10/28 10:45:58;;;;;;;9.98;2.58;;;21.20;99.90;;;;;;4914916;29;20083;-85
2022/10/28 10:48:26;;;;;;;12.10;2.45;;;21.20;99.90;;;;;;4901498;29;20060;-87
2022/10/28 10:50:54;;;;;;;12.73;2.03;;;21.20;99.90;;;;;;4913918;29;20060;-86
2022/10/28 10:53:29;;;;;;;8.57;2.08;;;21.30;99.90;;;;;;4894150;29;20127;-86
2022/10/28 10:56:04;;;;;;;14.10;3.10;;;21.30;99.90;;;;;;4891659;29;20104;-86
2022/10/28 10:58:38;;;;;;;12.40;2.03;;;21.30;99.90;;;;;;4907410;29;20053;-84
2022/10/28 11:01:09;;;;;;;14.02;2.10;;;21.30;99.90;;;;;;4902159;29;20052;-86
2022/10/28 11:03:52;;;;;;;9.05;2.38;;;21.40;99.90;;;;;;4909128;29;20045;-84
2022/10/28 11:06:24;;;;;;;13.00;2.78;;;21.40;99.90;;;;;;4906573;29;20053;-86
2022/10/28 11:08:57;;;;;;;7.20;2.35;;;21.60;99.90;;;;;;4902202;29;20059;-86
2022/10/28 11:11:36;;;;;;;9.40;1.95;;;21.50;99.90;;;;;;4892545;29;20060;-85
2022/10/28 11:14:19;;;;;;;12.52;3.15;;;21.60;99.90;;;;;;4894885;29;20707;-86
2022/10/28 11:16:55;;;;;;;14.65;3.10;;;21.90;99.90;;;;;;4890900;29;20060;-86
2022/10/28 11:19:30;;;;;;;9.07;2.45;;;21.90;99.90;;;;;;4902353;29;20057;-85
2022/10/28 11:22:09;;;;;;;15.90;1.95;;;22.00;99.90;;;;;;4898547;29;20535;-85
2022/10/28 11:25:04;;;;;;;12.00;2.50;;;22.20;99.90;;;;;;4899358;29;20045;-85
2022/10/28 11:28:09;;;;;;;9.55;2.53;;;22.20;99.90;;;;;;4909245;29;20431;-85
2022/10/28 11:31:23;;;;;;;14.80;2.60;;;22.40;99.90;;;;;;4908950;29;20113;-86
2022/10/28 11:34:27;;;;;;;11.90;2.50;;;22.50;99.90;;;;;;4905149;29;20064;-86
2022/10/28 11:37:11;;;;;;;12.15;3.00;;;22.60;99.90;;;;;;4899443;29;20056;-86
2022/10/28 11:39:53;;;;;;;7.60;2.22;;;22.70;99.90;;;;;;4898019;29;20041;-84
2022/10/28 11:42:36;;;;;;;11.18;1.98;;;22.70;99.90;;;;;;4899984;29;20041;-85
2022/10/28 11:48:23;;;;;;;10.18;2.40;;;22.70;99.90;;;;;;4892834;29;20060;-81
2022/10/28 11:51:27;;;;;;;7.57;2.10;;;22.70;99.90;;;;;;4901014;29;20082;-83
2022/10/28 11:54:09;;;;;;;11.60;2.35;;;22.70;99.90;;;;;;4903913;29;20501;-83
2022/10/28 11:56:47;;;;;;;7.47;1.75;;;22.60;99.90;;;;;;4893830;29;20058;-83
2022/10/28 11:59:27;;;;;;;10.15;2.17;;;22.60;99.90;;;;;;4912018;29;20055;-83
2022/10/28 12:02:18;;;;;;;7.18;2.05;;;22.50;99.90;;;;;;4907709;29;20048;-84
2022/10/28 12:05:03;;;;;;;8.85;2.53;;;22.50;99.90;;;;;;4911523;29;20048;-82
2022/10/28 12:07:36;;;;;;;5.70;1.83;;;22.40;99.90;;;;;;4916342;29;20098;-82
2022/10/28 12:10:09;;;;;;;11.73;3.00;;;22.40;99.90;;;;;;4912372;29;20581;-83
2022/10/28 12:13:01;;;;;;;11.82;2.28;;;22.40;99.90;;;;;;4905904;29;20059;-84
2022/10/28 12:15:46;;;;;;;4.95;1.83;;;22.40;99.90;;;;;;4903622;29;20059;-82
2022/10/28 12:18:20;;;;;;;8.93;2.38;;;22.30;99.90;;;;;;4906087;29;20052;-83
2022/10/28 12:21:01;;;;;;;12.60;2.63;;;22.30;99.90;;;;;;4908323;29;20055;-81
2022/10/28 12:23:32;;;;;;;7.22;2.08;;;22.40;99.90;;;;;;4910809;29;20052;-82
2022/10/28 12:26:00;;;;;;;68.05;31.88;;;22.40;99.90;;;;;;4911734;29;20063;-83
2022/10/28 12:28:32;;;;;;;38.65;14.13;;;22.40;99.90;;;;;;4910604;29;20075;-83
2022/10/28 12:31:00;;;;;;;30.23;15.20;;;22.60;99.90;;;;;;4906351;29;20132;-83
2022/10/28 12:33:45;;;;;;;24.77;11.68;;;22.60;99.90;;;;;;4904268;29;20079;-82
2022/10/28 12:36:27;;;;;;;21.45;4.38;;;22.60;99.90;;;;;;4908906;29;20518;-83
2022/10/28 12:39:00;;;;;;;10.43;2.60;;;22.60;99.90;;;;;;4910233;29;20522;-83
2022/10/28 12:42:05;;;;;;;8.48;2.40;;;22.60;99.90;;;;;;4910288;29;20079;-83
2022/10/28 12:44:33;;;;;;;14.65;2.47;;;22.70;99.90;;;;;;4903059;29;20059;-83
2022/10/28 12:47:13;;;;;;;17.80;2.10;;;22.80;99.90;;;;;;4909972;29;20121;-83
2022/10/28 12:49:55;;;;;;;9.07;2.58;;;22.70;99.90;;;;;;4909410;29;20060;-82
2022/10/28 12:52:52;;;;;;;12.80;2.95;;;22.80;99.90;;;;;;4907137;29;20057;-83
2022/10/28 12:55:44;;;;;;;13.50;2.88;;;22.80;99.90;;;;;;4901626;29;20044;-82
2022/10/28 12:58:31;;;;;;;11.20;3.03;;;22.80;99.90;;;;;;4900262;29;20048;-84
2022/10/28 13:01:08;;;;;;;10.60;2.50;;;22.80;99.90;;;;;;4910972;29;20063;-82
2022/10/28 13:03:36;;;;;;;11.05;2.63;;;22.80;99.90;;;;;;4906693;29;20056;-83
2022/10/28 13:06:21;;;;;;;12.00;3.22;;;22.70;99.90;;;;;;4912307;29;20104;-83
2022/10/28 13:09:17;;;;;;;7.35;2.92;;;22.70;99.90;;;;;;4908680;29;20056;-84
2022/10/28 13:11:54;;;;;;;7.80;2.63;;;22.60;99.90;;;;;;4911735;29;20054;-83
2022/10/28 13:14:49;;;;;;;11.98;2.92;;;22.60;99.90;;;;;;4902065;29;20422;-83
2022/10/28 13:18:00;;;;;;;13.40;2.53;;;22.50;99.90;;;;;;4918347;29;20152;-82
2022/10/28 13:20:40;;;;;;;11.07;3.25;;;22.50;99.90;;;;;;4873716;29;20067;-81
2022/10/28 13:23:28;;;;;;;10.88;2.45;;;22.40;99.90;;;;;;4906663;29;20079;-81
2022/10/28 13:26:05;;;;;;;12.23;2.38;;;22.40;99.90;;;;;;4908144;29;20407;-81
2022/10/28 13:28:42;;;;;;;15.20;2.50;;;22.50;99.90;;;;;;4907387;29;20059;-83
2022/10/28 13:31:09;;;;;;;8.35;2.22;;;22.40;99.90;;;;;;4904689;29;20056;-81
2022/10/28 13:33:37;;;;;;;17.83;3.00;;;22.50;99.90;;;;;;4906615;29;20437;-80
2022/10/28 13:36:07;;;;;;;15.77;2.50;;;22.50;99.90;;;;;;4918381;29;20074;-82
2022/10/28 13:38:34;;;;;;;12.55;2.53;;;22.50;99.90;;;;;;4917198;29;20045;-82
2022/10/28 13:41:01;;;;;;;14.23;3.28;;;22.50;99.90;;;;;;4911085;29;20055;-82
2022/10/28 13:43:49;;;;;;;12.15;2.85;;;22.50;99.90;;;;;;4911119;29;20056;-84
2022/10/28 13:46:54;;;;;;;11.20;2.45;;;22.60;99.90;;;;;;4908466;29;20052;-83
2022/10/28 13:49:28;;;;;;;7.45;2.05;;;22.60;99.90;;;;;;4900597;29;20057;-83
2022/10/28 13:52:19;;;;;;;12.15;2.25;;;22.70;99.90;;;;;;4904931;29;20143;-82
2022/10/28 13:54:46;;;;;;;13.20;2.22;;;22.80;99.90;;;;;;4912655;29;20079;-83
2022/10/28 13:57:35;;;;;;;11.55;2.40;;;22.80;99.90;;;;;;4907626;29;20053;-83
2022/10/28 14:00:22;;;;;;;5.07;1.92;;;22.80;99.90;;;;;;4903524;29;20411;-83
2022/10/28 14:02:59;;;;;;;10.20;2.03;;;22.90;99.90;;;;;;4901058;29;20123;-81
2022/10/28 14:05:36;;;;;;;8.60;2.58;;;22.90;99.90;;;;;;4902173;29;20135;-82
2022/10/28 14:08:17;;;;;;;10.70;2.38;;;23.00;99.90;;;;;;4905346;29;20391;-81
2022/10/28 14:11:06;;;;;;;17.10;3.65;;;23.00;99.90;;;;;;4901329;29;20514;-82
2022/10/28 14:14:00;;;;;;;13.43;3.70;;;23.00;99.90;;;;;;4913835;29;20418;-82
2022/10/28 14:16:33;;;;;;;9.98;3.60;;;23.00;99.90;;;;;;4912893;29;20059;-83
2022/10/28 14:19:04;;;;;;;9.38;3.65;;;23.00;99.90;;;;;;4902461;29;20406;-83
2022/10/28 14:21:47;;;;;;;13.65;3.10;;;23.10;99.90;;;;;;4908993;29;20108;-83
2022/10/28 14:24:41;;;;;;;11.15;2.80;;;23.10;99.90;;;;;;4904690;29;20063;-82
2022/10/28 14:27:07;;;;;;;8.32;2.97;;;23.00;99.90;;;;;;4910665;29;20079;-82
2022/10/28 14:29:47;;;;;;;9.35;3.35;;;23.10;99.90;;;;;;4910528;29;20052;-82
2022/10/28 14:32:29;;;;;;;10.70;2.67;;;23.10;99.90;;;;;;4902346;29;20064;-83
2022/10/28 14:35:17;;;;;;;7.63;2.28;;;23.10;99.90;;;;;;4909666;29;20056;-82
2022/10/28 14:37:44;;;;;;;9.60;2.67;;;23.10;99.90;;;;;;4907788;29;20422;-83
2022/10/28 14:40:31;;;;;;;11.57;3.35;;;23.10;99.90;;;;;;4905733;29;20048;-82
2022/10/28 14:43:18;;;;;;;11.93;2.92;;;23.00;99.90;;;;;;4905981;29;20055;-81
2022/10/28 14:46:08;;;;;;;9.40;2.30;;;23.00;99.90;;;;;;4904878;29;20063;-82
2022/10/28 14:49:03;;;;;;;12.60;2.95;;;23.00;99.90;;;;;;4910782;29;20081;-82
2022/10/28 14:51:38;;;;;;;10.57;3.25;;;23.00;99.90;;;;;;4904481;29;20139;-81
2022/10/28 14:54:12;;;;;;;10.88;3.75;;;22.90;99.90;;;;;;4905482;29;20056;-82
2022/10/28 14:56:39;;;;;;;11.55;4.45;;;22.90;99.90;;;;;;4905019;29;20517;-82
2022/10/28 14:59:35;;;;;;;13.50;3.20;;;22.80;99.90;;;;;;4909699;29;20049;-82
2022/10/28 15:02:19;;;;;;;7.40;2.40;;;22.70;99.90;;;;;;4907578;29;20059;-83
2022/10/28 15:04:55;;;;;;;7.07;2.72;;;22.60;99.90;;;;;;4902226;29;20139;-83
2022/10/28 15:07:22;;;;;;;9.57;3.03;;;22.60;99.90;;;;;;4909633;29;20059;-82
2022/10/28 15:09:52;;;;;;;11.20;3.38;;;22.40;99.90;;;;;;4909892;29;20057;-82
2022/10/28 15:12:21;;;;;;;7.82;2.50;;;22.40;99.90;;;;;;4906703;29;20103;-84
2022/10/28 15:14:52;;;;;;;7.47;3.05;;;22.30;99.90;;;;;;4909938;29;20064;-81
2022/10/28 15:17:20;;;;;;;7.57;2.72;;;22.20;99.90;;;;;;4914778;29;20059;-82
2022/10/28 15:19:53;;;;;;;16.00;2.78;;;22.10;99.90;;;;;;4911550;29;20052;-82
2022/10/28 15:22:27;;;;;;;8.45;3.40;;;22.00;99.90;;;;;;4910593;29;20048;-83
2022/10/28 15:25:01;;;;;;;12.45;3.15;;;22.00;99.90;;;;;;4913659;29;20119;-81
2022/10/28 15:27:31;;;;;;;6.90;2.92;;;21.90;99.90;;;;;;4912460;29;20403;-83
2022/10/28 15:29:58;;;;;;;12.27;4.25;;;21.80;99.90;;;;;;4910498;29;20058;-82
2022/10/28 15:32:33;;;;;;;8.15;2.78;;;21.70;99.90;;;;;;4911240;29;20048;-82
2022/10/28 15:35:25;;;;;;;8.75;2.92;;;21.60;99.90;;;;;;4908732;29;20074;-83
2022/10/28 15:37:53;;;;;;;12.23;3.00;;;21.50;99.90;;;;;;4898877;29;20074;-83
2022/10/28 15:40:32;;;;;;;11.73;3.05;;;21.50;99.90;;;;;;4915489;29;20052;-82
2022/10/28 15:43:01;;;;;;;7.45;2.30;;;21.40;99.90;;;;;;4913128;29;20056;-82
2022/10/28 15:45:34;;;;;;;12.05;4.10;;;21.30;99.90;;;;;;4913913;29;20052;-83
2022/10/28 15:48:13;;;;;;;13.88;3.97;;;21.20;99.90;;;;;;4900828;29;20052;-83
2022/10/28 15:50:40;;;;;;;9.55;2.63;;;21.10;99.90;;;;;;4911074;29;20056;-81
2022/10/28 15:53:09;;;;;;;15.15;2.65;;;21.00;99.90;;;;;;4911181;29;20052;-83
2022/10/28 15:55:38;;;;;;;7.95;3.00;;;20.90;99.90;;;;;;4910162;29;20067;-83
2022/10/28 15:58:39;;;;;;;14.38;3.97;;;20.80;99.90;;;;;;4908831;29;20057;-83
2022/10/28 16:01:26;;;;;;;8.38;3.47;;;20.70;99.90;;;;;;4907107;29;20056;-83
2022/10/28 16:03:53;;;;;;;10.45;4.07;;;20.60;99.90;;;;;;4907463;29;20060;-80
2022/10/28 16:06:27;;;;;;;14.20;3.83;;;20.50;99.90;;;;;;4905659;29;20646;-82
2022/10/28 16:09:25;;;;;;;21.27;8.75;;;20.40;99.90;;;;;;4906640;29;20138;-83
2022/10/28 16:11:56;;;;;;;17.42;8.05;;;20.30;99.90;;;;;;4912222;29;20067;-82
2022/10/28 16:14:28;;;;;;;12.73;4.82;;;20.20;99.90;;;;;;4910097;29;20048;-82
2022/10/28 16:17:08;;;;;;;11.95;4.97;;;20.20;99.90;;;;;;4909715;29;20052;-82
2022/10/28 16:19:39;;;;;;;16.35;5.30;;;20.10;99.90;;;;;;4892191;29;20550;-82
2022/10/28 16:22:09;;;;;;;9.73;3.75;;;20.00;99.90;;;;;;4907983;29;20048;-83
2022/10/28 16:24:36;;;;;;;8.70;3.63;;;19.90;99.90;;;;;;4906181;29;20055;-83
2022/10/28 16:27:29;;;;;;;14.73;3.42;;;19.80;99.90;;;;;;4910894;29;20056;-81
2022/10/28 16:29:56;;;;;;;13.45;3.03;;;19.70;99.90;;;;;;4905342;29;20057;-83
2022/10/28 16:32:47;;;;;;;13.50;2.95;;;19.70;99.90;;;;;;4917444;29;20052;-81
2022/10/28 16:35:21;;;;;;;12.57;2.83;;;19.60;99.90;;;;;;4895680;29;20060;-83
2022/10/28 16:37:48;;;;;;;14.30;2.83;;;19.60;99.90;;;;;;4892499;29;20053;-83
2022/10/28 16:40:20;;;;;;;10.35;2.30;;;19.50;99.90;;;;;;4917426;29;20100;-81
2022/10/28 16:43:18;;;;;;;16.20;2.88;;;19.50;99.90;;;;;;4914196;29;20095;-83
2022/10/28 16:45:46;;;;;;;17.42;3.75;;;19.50;99.90;;;;;;4916957;29;20056;-81
2022/10/28 16:48:17;;;;;;;13.63;3.20;;;19.50;99.90;;;;;;4915322;29;20084;-82
2022/10/28 16:50:48;;;;;;;11.30;3.30;;;19.40;99.90;;;;;;4914214;29;20052;-80
2022/10/28 16:53:15;;;;;;;12.27;2.88;;;19.40;99.90;;;;;;4920409;29;20522;-81
2022/10/28 16:55:42;;;;;;;12.25;2.85;;;19.40;99.90;;;;;;4920870;29;20216;-83
2022/10/28 16:58:09;;;;;;;17.33;3.65;;;19.30;99.90;;;;;;4908338;29;20145;-83
2022/10/28 17:00:37;;;;;;;13.25;3.60;;;19.30;99.90;;;;;;4908306;29;20052;-83
2022/10/28 17:03:04;;;;;;;23.67;8.75;;;19.20;99.90;;;;;;4905495;29;20055;-83
2022/10/28 17:05:31;;;;;;;22.25;8.15;;;19.20;99.90;;;;;;4919403;29;20052;-81
2022/10/28 17:07:58;;;;;;;20.45;8.50;;;19.20;99.90;;;;;;4917515;29;20061;-80
2022/10/28 17:10:26;;;;;;;18.50;7.55;;;19.10;99.90;;;;;;4918915;29;20112;-82
2022/10/28 17:12:53;;;;;;;15.02;4.95;;;19.10;99.90;;;;;;4914968;29;20057;-80
2022/10/28 17:15:20;;;;;;;9.48;3.47;;;19.10;99.90;;;;;;4921360;29;20431;-82
2022/10/28 17:17:48;;;;;;;16.08;4.20;;;19.00;99.90;;;;;;4919700;29;20053;-82